sensor_id;sensor_type;location;lat;lon;timestamp;P1;durP1;ratioP1;P2;durP2;ratioP2
27375;SDS011;14844;51.302;6.354;2022-12-26T00:01:10;12.93;;;7.95;;
27375;SDS011;14844;51.302;6.354;2022-12-26T00:03:36;12.10;;;7.45;;
27375;SDS011;14844;51.302;6.354;2022-12-26T00:06:02;8.35;;;6.05;;
27375;SDS011;14844;51.302;6.354;2022-12-26T00:08:28;12.77;;;5.78;;
27375;SDS011;14844;51.302;6.354;2022-12-26T00:10:56;11.18;;;5.90;;
27375;SDS011;14844;51.302;6.354;2022-12-26T00:13:22;9.35;;;5.85;;
27375;SDS011;14844;51.302;6.354;2022-12-26T00:15:48;9.85;;;5.90;;
27375;SDS011;14844;51.302;6.354;2022-12-26T00:18:13;8.10;;;5.50;;
27375;SDS011;14844;51.302;6.354;2022-12-26T00:20:39;10.27;;;6.65;;
27375;SDS011;14844;51.302;6.354;2022-12-26T00:23:05;9.73;;;6.57;;
27375;SDS011;14844;51.302;6.354;2022-12-26T00:25:32;12.27;;;6.75;;
27375;SDS011;14844;51.302;6.354;2022-12-26T00:27:58;11.05;;;6.85;;
27375;SDS011;14844;51.302;6.354;2022-12-26T00:30:24;12.02;;;8.02;;
27375;SDS011;14844;51.302;6.354;2022-12-26T00:32:49;13.82;;;8.05;;
27375;SDS011;14844;51.302;6.354;2022-12-26T00:35:15;13.35;;;7.88;;
27375;SDS011;14844;51.302;6.354;2022-12-26T00:37:43;12.38;;;8.25;;
27375;SDS011;14844;51.302;6.354;2022-12-26T00:40:09;12.43;;;8.70;;
27375;SDS011;14844;51.302;6.354;2022-12-26T00:42:35;10.60;;;8.63;;
27375;SDS011;14844;51.302;6.354;2022-12-26T00:45:01;13.18;;;9.13;;
27375;SDS011;14844;51.302;6.354;2022-12-26T00:47:26;14.40;;;9.18;;
27375;SDS011;14844;51.302;6.354;2022-12-26T00:49:52;11.23;;;8.27;;
27375;SDS011;14844;51.302;6.354;2022-12-26T00:52:17;12.38;;;8.02;;
27375;SDS011;14844;51.302;6.354;2022-12-26T00:54:43;11.82;;;8.07;;
27375;SDS011;14844;51.302;6.354;2022-12-26T00:57:09;13.70;;;8.90;;
27375;SDS011;14844;51.302;6.354;2022-12-26T00:59:35;12.27;;;7.80;;
27375;SDS011;14844;51.302;6.354;2022-12-26T01:02:00;13.57;;;8.18;;
27375;SDS011;14844;51.302;6.354;2022-12-26T01:04:26;11.52;;;7.97;;
27375;SDS011;14844;51.302;6.354;2022-12-26T01:06:52;10.55;;;7.53;;
27375;SDS011;14844;51.302;6.354;2022-12-26T01:09:17;13.55;;;8.50;;
27375;SDS011;14844;51.302;6.354;2022-12-26T01:11:43;11.98;;;8.35;;
27375;SDS011;14844;51.302;6.354;2022-12-26T01:14:10;10.13;;;7.90;;
27375;SDS011;14844;51.302;6.354;2022-12-26T01:16:38;18.45;;;10.40;;
27375;SDS011;14844;51.302;6.354;2022-12-26T01:19:05;14.65;;;10.32;;
27375;SDS011;14844;51.302;6.354;2022-12-26T01:21:31;15.20;;;10.82;;
27375;SDS011;14844;51.302;6.354;2022-12-26T01:23:57;15.63;;;10.27;;
27375;SDS011;14844;51.302;6.354;2022-12-26T01:26:22;14.40;;;9.77;;
27375;SDS011;14844;51.302;6.354;2022-12-26T01:28:49;14.50;;;8.68;;
27375;SDS011;14844;51.302;6.354;2022-12-26T01:31:16;11.43;;;8.60;;
27375;SDS011;14844;51.302;6.354;2022-12-26T01:33:42;13.63;;;9.43;;
27375;SDS011;14844;51.302;6.354;2022-12-26T01:36:07;10.30;;;7.13;;
27375;SDS011;14844;51.302;6.354;2022-12-26T01:38:33;10.15;;;7.05;;
27375;SDS011;14844;51.302;6.354;2022-12-26T01:40:58;12.05;;;7.65;;
27375;SDS011;14844;51.302;6.354;2022-12-26T01:46:48;10.13;;;6.93;;
27375;SDS011;14844;51.302;6.354;2022-12-26T01:49:20;11.63;;;6.82;;
27375;SDS011;14844;51.302;6.354;2022-12-26T01:51:56;13.75;;;7.50;;
27375;SDS011;14844;51.302;6.354;2022-12-26T01:54:26;10.40;;;6.40;;
27375;SDS011;14844;51.302;6.354;2022-12-26T01:56:54;9.88;;;6.63;;
27375;SDS011;14844;51.302;6.354;2022-12-26T01:59:24;10.75;;;6.50;;
27375;SDS011;14844;51.302;6.354;2022-12-26T02:01:52;13.30;;;7.50;;
27375;SDS011;14844;51.302;6.354;2022-12-26T02:04:23;11.40;;;6.45;;
27375;SDS011;14844;51.302;6.354;2022-12-26T02:07:11;13.88;;;7.60;;
27375;SDS011;14844;51.302;6.354;2022-12-26T02:09:38;12.25;;;7.55;;
27375;SDS011;14844;51.302;6.354;2022-12-26T02:12:07;14.20;;;8.20;;
27375;SDS011;14844;51.302;6.354;2022-12-26T02:14:40;12.65;;;8.40;;
27375;SDS011;14844;51.302;6.354;2022-12-26T02:17:06;12.20;;;7.82;;
27375;SDS011;14844;51.302;6.354;2022-12-26T02:24:56;14.23;;;9.38;;
27375;SDS011;14844;51.302;6.354;2022-12-26T02:30:47;16.75;;;11.57;;
27375;SDS011;14844;51.302;6.354;2022-12-26T02:33:21;18.40;;;12.80;;
27375;SDS011;14844;51.302;6.354;2022-12-26T02:41:22;17.45;;;14.07;;
27375;SDS011;14844;51.302;6.354;2022-12-26T02:44:02;17.45;;;14.02;;
27375;SDS011;14844;51.302;6.354;2022-12-26T02:53:03;22.20;;;16.00;;
27375;SDS011;14844;51.302;6.354;2022-12-26T02:56:12;21.45;;;15.27;;
27375;SDS011;14844;51.302;6.354;2022-12-26T02:59:07;22.02;;;16.85;;
27375;SDS011;14844;51.302;6.354;2022-12-26T03:05:17;21.58;;;16.60;;
27375;SDS011;14844;51.302;6.354;2022-12-26T03:08:26;22.02;;;16.65;;
27375;SDS011;14844;51.302;6.354;2022-12-26T03:11:18;23.15;;;17.30;;
27375;SDS011;14844;51.302;6.354;2022-12-26T03:14:11;21.55;;;16.70;;
27375;SDS011;14844;51.302;6.354;2022-12-26T03:16:44;21.10;;;16.52;;
27375;SDS011;14844;51.302;6.354;2022-12-26T03:19:32;22.13;;;16.40;;
27375;SDS011;14844;51.302;6.354;2022-12-26T03:22:00;21.08;;;16.15;;
27375;SDS011;14844;51.302;6.354;2022-12-26T03:24:47;19.92;;;15.40;;
27375;SDS011;14844;51.302;6.354;2022-12-26T03:27:32;17.00;;;13.63;;
27375;SDS011;14844;51.302;6.354;2022-12-26T03:29:57;21.88;;;15.80;;
27375;SDS011;14844;51.302;6.354;2022-12-26T03:32:42;22.35;;;14.40;;
27375;SDS011;14844;51.302;6.354;2022-12-26T03:35:12;21.13;;;14.52;;
27375;SDS011;14844;51.302;6.354;2022-12-26T03:49:41;23.67;;;16.83;;
27375;SDS011;14844;51.302;6.354;2022-12-26T03:52:34;25.95;;;17.58;;
27375;SDS011;14844;51.302;6.354;2022-12-26T03:58:29;19.15;;;15.27;;
27375;SDS011;14844;51.302;6.354;2022-12-26T04:01:24;21.83;;;14.95;;
27375;SDS011;14844;51.302;6.354;2022-12-26T04:04:12;20.13;;;14.27;;
27375;SDS011;14844;51.302;6.354;2022-12-26T04:09:54;19.67;;;13.35;;
27375;SDS011;14844;51.302;6.354;2022-12-26T04:12:42;16.20;;;12.55;;
27375;SDS011;14844;51.302;6.354;2022-12-26T04:15:44;16.83;;;12.10;;
27375;SDS011;14844;51.302;6.354;2022-12-26T04:18:43;17.17;;;12.27;;
27375;SDS011;14844;51.302;6.354;2022-12-26T04:21:51;18.85;;;13.05;;
27375;SDS011;14844;51.302;6.354;2022-12-26T04:25:13;17.83;;;12.30;;
27375;SDS011;14844;51.302;6.354;2022-12-26T04:28:02;19.15;;;13.40;;
27375;SDS011;14844;51.302;6.354;2022-12-26T04:30:51;19.75;;;12.95;;
27375;SDS011;14844;51.302;6.354;2022-12-26T04:33:49;19.83;;;14.23;;
27375;SDS011;14844;51.302;6.354;2022-12-26T04:36:48;22.08;;;14.45;;
27375;SDS011;14844;51.302;6.354;2022-12-26T04:39:41;21.15;;;14.80;;
27375;SDS011;14844;51.302;6.354;2022-12-26T04:42:30;20.63;;;13.95;;
27375;SDS011;14844;51.302;6.354;2022-12-26T04:45:16;20.00;;;14.52;;
27375;SDS011;14844;51.302;6.354;2022-12-26T04:47:44;23.77;;;14.50;;
27375;SDS011;14844;51.302;6.354;2022-12-26T04:50:28;19.58;;;14.02;;
27375;SDS011;14844;51.302;6.354;2022-12-26T04:52:54;21.88;;;14.05;;
27375;SDS011;14844;51.302;6.354;2022-12-26T04:55:22;22.05;;;14.35;;
27375;SDS011;14844;51.302;6.354;2022-12-26T04:57:49;25.73;;;14.68;;
27375;SDS011;14844;51.302;6.354;2022-12-26T05:00:15;25.13;;;14.73;;
27375;SDS011;14844;51.302;6.354;2022-12-26T05:02:41;23.02;;;14.10;;
27375;SDS011;14844;51.302;6.354;2022-12-26T05:05:35;22.17;;;14.43;;
27375;SDS011;14844;51.302;6.354;2022-12-26T05:08:40;22.83;;;14.85;;
27375;SDS011;14844;51.302;6.354;2022-12-26T05:11:27;27.40;;;15.43;;
27375;SDS011;14844;51.302;6.354;2022-12-26T05:13:54;22.25;;;14.10;;
27375;SDS011;14844;51.302;6.354;2022-12-26T05:16:20;21.95;;;13.68;;
27375;SDS011;14844;51.302;6.354;2022-12-26T05:19:07;22.77;;;14.68;;
27375;SDS011;14844;51.302;6.354;2022-12-26T05:21:55;21.83;;;14.57;;
27375;SDS011;14844;51.302;6.354;2022-12-26T05:24:41;23.63;;;15.02;;
27375;SDS011;14844;51.302;6.354;2022-12-26T05:27:28;21.77;;;15.07;;
27375;SDS011;14844;51.302;6.354;2022-12-26T05:30:23;24.15;;;15.20;;
27375;SDS011;14844;51.302;6.354;2022-12-26T05:32:49;24.92;;;14.98;;
27375;SDS011;14844;51.302;6.354;2022-12-26T05:35:33;24.08;;;15.05;;
27375;SDS011;14844;51.302;6.354;2022-12-26T05:37:59;25.98;;;15.25;;
27375;SDS011;14844;51.302;6.354;2022-12-26T05:40:25;27.25;;;16.05;;
27375;SDS011;14844;51.302;6.354;2022-12-26T05:42:51;24.65;;;14.93;;
27375;SDS011;14844;51.302;6.354;2022-12-26T05:45:17;23.20;;;15.10;;
27375;SDS011;14844;51.302;6.354;2022-12-26T05:47:42;28.55;;;14.80;;
27375;SDS011;14844;51.302;6.354;2022-12-26T05:50:08;25.33;;;15.57;;
27375;SDS011;14844;51.302;6.354;2022-12-26T05:52:33;21.45;;;15.00;;
27375;SDS011;14844;51.302;6.354;2022-12-26T05:54:59;26.77;;;16.17;;
27375;SDS011;14844;51.302;6.354;2022-12-26T05:57:25;25.75;;;16.35;;
27375;SDS011;14844;51.302;6.354;2022-12-26T05:59:50;27.40;;;17.02;;
27375;SDS011;14844;51.302;6.354;2022-12-26T06:02:16;27.80;;;16.95;;
27375;SDS011;14844;51.302;6.354;2022-12-26T06:04:41;23.48;;;15.73;;
27375;SDS011;14844;51.302;6.354;2022-12-26T06:07:07;27.75;;;17.17;;
27375;SDS011;14844;51.302;6.354;2022-12-26T06:09:32;31.65;;;18.17;;
27375;SDS011;14844;51.302;6.354;2022-12-26T06:11:58;31.40;;;18.77;;
27375;SDS011;14844;51.302;6.354;2022-12-26T06:14:23;29.73;;;16.58;;
27375;SDS011;14844;51.302;6.354;2022-12-26T06:16:49;24.27;;;15.88;;
27375;SDS011;14844;51.302;6.354;2022-12-26T06:19:14;26.75;;;16.55;;
27375;SDS011;14844;51.302;6.354;2022-12-26T06:21:40;27.13;;;16.42;;
27375;SDS011;14844;51.302;6.354;2022-12-26T06:24:06;27.85;;;17.25;;
27375;SDS011;14844;51.302;6.354;2022-12-26T06:26:31;25.85;;;15.70;;
27375;SDS011;14844;51.302;6.354;2022-12-26T06:28:57;25.55;;;14.70;;
27375;SDS011;14844;51.302;6.354;2022-12-26T06:31:23;20.65;;;14.75;;
27375;SDS011;14844;51.302;6.354;2022-12-26T06:33:50;26.98;;;16.13;;
27375;SDS011;14844;51.302;6.354;2022-12-26T06:36:19;23.92;;;14.52;;
27375;SDS011;14844;51.302;6.354;2022-12-26T06:38:46;23.67;;;13.30;;
27375;SDS011;14844;51.302;6.354;2022-12-26T06:41:13;22.63;;;12.40;;
27375;SDS011;14844;51.302;6.354;2022-12-26T06:43:41;21.73;;;12.35;;
27375;SDS011;14844;51.302;6.354;2022-12-26T06:46:09;21.65;;;12.65;;
27375;SDS011;14844;51.302;6.354;2022-12-26T06:48:40;20.88;;;12.02;;
27375;SDS011;14844;51.302;6.354;2022-12-26T06:51:06;22.35;;;13.30;;
27375;SDS011;14844;51.302;6.354;2022-12-26T06:53:36;21.88;;;11.85;;
27375;SDS011;14844;51.302;6.354;2022-12-26T06:58:35;19.58;;;13.10;;
27375;SDS011;14844;51.302;6.354;2022-12-26T07:01:08;24.55;;;13.07;;
27375;SDS011;14844;51.302;6.354;2022-12-26T07:03:38;22.25;;;14.13;;
27375;SDS011;14844;51.302;6.354;2022-12-26T07:06:05;30.10;;;14.93;;
27375;SDS011;14844;51.302;6.354;2022-12-26T07:08:32;19.65;;;13.20;;
27375;SDS011;14844;51.302;6.354;2022-12-26T07:10:58;21.10;;;12.88;;
27375;SDS011;14844;51.302;6.354;2022-12-26T07:13:24;23.20;;;12.73;;
27375;SDS011;14844;51.302;6.354;2022-12-26T07:15:49;20.58;;;12.68;;
27375;SDS011;14844;51.302;6.354;2022-12-26T07:18:15;20.83;;;12.63;;
27375;SDS011;14844;51.302;6.354;2022-12-26T07:20:40;21.15;;;11.75;;
27375;SDS011;14844;51.302;6.354;2022-12-26T07:23:06;17.50;;;11.00;;
27375;SDS011;14844;51.302;6.354;2022-12-26T07:25:32;19.88;;;10.70;;
27375;SDS011;14844;51.302;6.354;2022-12-26T07:27:57;16.45;;;9.55;;
27375;SDS011;14844;51.302;6.354;2022-12-26T07:30:24;14.90;;;8.68;;
27375;SDS011;14844;51.302;6.354;2022-12-26T07:32:50;10.02;;;7.20;;
27375;SDS011;14844;51.302;6.354;2022-12-26T07:35:15;10.35;;;7.53;;
27375;SDS011;14844;51.302;6.354;2022-12-26T07:37:41;8.98;;;6.20;;
27375;SDS011;14844;51.302;6.354;2022-12-26T07:40:06;12.50;;;7.47;;
27375;SDS011;14844;51.302;6.354;2022-12-26T07:42:32;13.40;;;6.53;;
27375;SDS011;14844;51.302;6.354;2022-12-26T07:44:58;9.23;;;5.55;;
27375;SDS011;14844;51.302;6.354;2022-12-26T07:47:23;9.35;;;5.68;;
27375;SDS011;14844;51.302;6.354;2022-12-26T07:49:49;8.57;;;5.25;;
27375;SDS011;14844;51.302;6.354;2022-12-26T07:52:14;11.57;;;5.10;;
27375;SDS011;14844;51.302;6.354;2022-12-26T07:54:40;10.43;;;4.30;;
27375;SDS011;14844;51.302;6.354;2022-12-26T07:57:05;11.45;;;4.70;;
27375;SDS011;14844;51.302;6.354;2022-12-26T07:59:31;7.15;;;3.72;;
27375;SDS011;14844;51.302;6.354;2022-12-26T08:01:56;9.40;;;3.97;;
27375;SDS011;14844;51.302;6.354;2022-12-26T08:04:23;6.10;;;3.60;;
27375;SDS011;14844;51.302;6.354;2022-12-26T08:06:49;6.55;;;3.75;;
27375;SDS011;14844;51.302;6.354;2022-12-26T08:09:14;6.15;;;3.05;;
27375;SDS011;14844;51.302;6.354;2022-12-26T08:11:40;7.65;;;3.20;;
27375;SDS011;14844;51.302;6.354;2022-12-26T08:14:06;5.68;;;2.80;;
27375;SDS011;14844;51.302;6.354;2022-12-26T08:16:33;5.60;;;2.15;;
27375;SDS011;14844;51.302;6.354;2022-12-26T08:19:00;6.45;;;2.78;;
27375;SDS011;14844;51.302;6.354;2022-12-26T08:21:27;6.22;;;2.58;;
27375;SDS011;14844;51.302;6.354;2022-12-26T08:23:53;6.68;;;2.70;;
27375;SDS011;14844;51.302;6.354;2022-12-26T08:26:18;7.03;;;2.85;;
27375;SDS011;14844;51.302;6.354;2022-12-26T08:28:47;6.82;;;2.75;;
27375;SDS011;14844;51.302;6.354;2022-12-26T08:31:14;8.85;;;3.33;;
27375;SDS011;14844;51.302;6.354;2022-12-26T08:33:40;5.57;;;2.22;;
27375;SDS011;14844;51.302;6.354;2022-12-26T08:36:07;5.63;;;2.38;;
27375;SDS011;14844;51.302;6.354;2022-12-26T08:38:34;6.43;;;2.28;;
27375;SDS011;14844;51.302;6.354;2022-12-26T08:41:00;10.23;;;2.63;;
27375;SDS011;14844;51.302;6.354;2022-12-26T08:43:26;7.97;;;2.25;;
27375;SDS011;14844;51.302;6.354;2022-12-26T08:48:35;5.63;;;2.00;;
27375;SDS011;14844;51.302;6.354;2022-12-26T08:51:06;6.38;;;1.90;;
27375;SDS011;14844;51.302;6.354;2022-12-26T08:53:37;4.95;;;1.60;;
27375;SDS011;14844;51.302;6.354;2022-12-26T08:56:04;7.90;;;1.73;;
27375;SDS011;14844;51.302;6.354;2022-12-26T08:58:31;5.20;;;1.60;;
27375;SDS011;14844;51.302;6.354;2022-12-26T09:01:08;7.82;;;1.50;;
27375;SDS011;14844;51.302;6.354;2022-12-26T09:04:18;6.78;;;1.50;;
27375;SDS011;14844;51.302;6.354;2022-12-26T09:06:43;6.00;;;1.42;;
27375;SDS011;14844;51.302;6.354;2022-12-26T09:09:10;6.10;;;1.60;;
27375;SDS011;14844;51.302;6.354;2022-12-26T09:11:37;4.20;;;1.50;;
27375;SDS011;14844;51.302;6.354;2022-12-26T09:14:03;3.55;;;1.25;;
27375;SDS011;14844;51.302;6.354;2022-12-26T09:16:31;4.90;;;1.50;;
27375;SDS011;14844;51.302;6.354;2022-12-26T09:19:02;3.38;;;1.20;;
27375;SDS011;14844;51.302;6.354;2022-12-26T09:21:31;2.58;;;1.30;;
27375;SDS011;14844;51.302;6.354;2022-12-26T09:24:01;5.68;;;1.75;;
27375;SDS011;14844;51.302;6.354;2022-12-26T09:26:28;6.73;;;1.43;;
27375;SDS011;14844;51.302;6.354;2022-12-26T09:28:54;6.47;;;1.35;;
27375;SDS011;14844;51.302;6.354;2022-12-26T09:31:22;4.20;;;1.30;;
27375;SDS011;14844;51.302;6.354;2022-12-26T09:33:53;3.50;;;1.20;;
27375;SDS011;14844;51.302;6.354;2022-12-26T09:36:21;4.57;;;1.60;;
27375;SDS011;14844;51.302;6.354;2022-12-26T09:38:48;3.13;;;1.15;;
27375;SDS011;14844;51.302;6.354;2022-12-26T09:49:30;7.53;;;1.48;;
27375;SDS011;14844;51.302;6.354;2022-12-26T09:52:11;3.13;;;1.10;;
27375;SDS011;14844;51.302;6.354;2022-12-26T09:54:42;7.72;;;1.40;;
27375;SDS011;14844;51.302;6.354;2022-12-26T09:57:27;5.05;;;1.25;;
27375;SDS011;14844;51.302;6.354;2022-12-26T10:00:01;5.40;;;1.40;;
27375;SDS011;14844;51.302;6.354;2022-12-26T10:02:29;5.50;;;1.40;;
27375;SDS011;14844;51.302;6.354;2022-12-26T10:04:55;5.93;;;1.17;;
27375;SDS011;14844;51.302;6.354;2022-12-26T10:07:33;5.45;;;1.13;;
27375;SDS011;14844;51.302;6.354;2022-12-26T10:11:14;7.20;;;1.10;;
27375;SDS011;14844;51.302;6.354;2022-12-26T10:13:16;44.20;;;21.35;;
27375;SDS011;14844;51.302;6.354;2022-12-26T10:15:52;15.35;;;7.60;;
27375;SDS011;14844;51.302;6.354;2022-12-26T10:21:22;14.68;;;5.70;;
27375;SDS011;14844;51.302;6.354;2022-12-26T10:26:42;18.42;;;8.07;;
27375;SDS011;14844;51.302;6.354;2022-12-26T10:29:22;32.40;;;16.58;;
27375;SDS011;14844;51.302;6.354;2022-12-26T10:31:54;11.27;;;5.35;;
27375;SDS011;14844;51.302;6.354;2022-12-26T10:34:27;21.70;;;9.38;;
27375;SDS011;14844;51.302;6.354;2022-12-26T10:36:58;8.10;;;2.78;;
27375;SDS011;14844;51.302;6.354;2022-12-26T10:42:12;13.70;;;5.75;;
27375;SDS011;14844;51.302;6.354;2022-12-26T10:44:42;14.15;;;6.60;;
27375;SDS011;14844;51.302;6.354;2022-12-26T10:47:13;12.20;;;5.40;;
27375;SDS011;14844;51.302;6.354;2022-12-26T10:49:41;9.93;;;5.13;;
27375;SDS011;14844;51.302;6.354;2022-12-26T10:52:13;8.80;;;3.30;;
27375;SDS011;14844;51.302;6.354;2022-12-26T10:54:40;14.90;;;7.50;;
27375;SDS011;14844;51.302;6.354;2022-12-26T10:57:06;16.25;;;7.60;;
27375;SDS011;14844;51.302;6.354;2022-12-26T10:59:48;13.07;;;5.88;;
27375;SDS011;14844;51.302;6.354;2022-12-26T11:05:25;9.95;;;3.88;;
27375;SDS011;14844;51.302;6.354;2022-12-26T11:07:53;6.80;;;3.60;;
27375;SDS011;14844;51.302;6.354;2022-12-26T11:10:21;6.55;;;2.40;;
27375;SDS011;14844;51.302;6.354;2022-12-26T11:12:51;6.25;;;1.92;;
27375;SDS011;14844;51.302;6.354;2022-12-26T11:21:12;6.32;;;1.17;;
27375;SDS011;14844;51.302;6.354;2022-12-26T11:23:50;9.45;;;1.23;;
27375;SDS011;14844;51.302;6.354;2022-12-26T11:26:18;7.47;;;0.93;;
27375;SDS011;14844;51.302;6.354;2022-12-26T11:28:46;5.30;;;1.50;;
27375;SDS011;14844;51.302;6.354;2022-12-26T11:31:19;6.38;;;1.05;;
27375;SDS011;14844;51.302;6.354;2022-12-26T11:33:50;6.85;;;0.90;;
27375;SDS011;14844;51.302;6.354;2022-12-26T11:36:24;3.30;;;0.75;;
27375;SDS011;14844;51.302;6.354;2022-12-26T11:38:55;3.88;;;0.82;;
27375;SDS011;14844;51.302;6.354;2022-12-26T11:43:56;4.97;;;1.40;;
27375;SDS011;14844;51.302;6.354;2022-12-26T11:46:34;4.97;;;1.02;;
27375;SDS011;14844;51.302;6.354;2022-12-26T11:49:04;5.63;;;1.00;;
27375;SDS011;14844;51.302;6.354;2022-12-26T11:51:35;5.38;;;1.10;;
27375;SDS011;14844;51.302;6.354;2022-12-26T11:54:11;3.80;;;1.05;;
27375;SDS011;14844;51.302;6.354;2022-12-26T11:56:37;5.13;;;0.90;;
27375;SDS011;14844;51.302;6.354;2022-12-26T11:59:13;5.00;;;1.08;;
27375;SDS011;14844;51.302;6.354;2022-12-26T12:01:43;6.30;;;1.00;;
27375;SDS011;14844;51.302;6.354;2022-12-26T12:04:08;7.10;;;1.48;;
27375;SDS011;14844;51.302;6.354;2022-12-26T12:06:44;6.60;;;1.23;;
27375;SDS011;14844;51.302;6.354;2022-12-26T12:09:33;5.85;;;1.27;;
27375;SDS011;14844;51.302;6.354;2022-12-26T12:17:58;7.40;;;2.03;;
27375;SDS011;14844;51.302;6.354;2022-12-26T12:23:33;6.40;;;1.02;;
27375;SDS011;14844;51.302;6.354;2022-12-26T12:32:06;6.53;;;0.93;;
27375;SDS011;14844;51.302;6.354;2022-12-26T12:43:06;7.38;;;1.20;;
27375;SDS011;14844;51.302;6.354;2022-12-26T12:45:34;7.40;;;1.02;;
27375;SDS011;14844;51.302;6.354;2022-12-26T13:08:33;10.90;;;1.88;;
27375;SDS011;14844;51.302;6.354;2022-12-26T13:11:12;10.90;;;1.60;;
27375;SDS011;14844;51.302;6.354;2022-12-26T13:14:04;8.73;;;1.65;;
27375;SDS011;14844;51.302;6.354;2022-12-26T13:16:37;11.90;;;1.98;;
27375;SDS011;14844;51.302;6.354;2022-12-26T13:19:17;10.75;;;2.10;;
27375;SDS011;14844;51.302;6.354;2022-12-26T13:21:48;12.63;;;1.65;;
27375;SDS011;14844;51.302;6.354;2022-12-26T13:24:26;11.45;;;2.05;;
27375;SDS011;14844;51.302;6.354;2022-12-26T13:29:35;6.47;;;1.55;;
27375;SDS011;14844;51.302;6.354;2022-12-26T13:32:03;13.43;;;1.70;;
27375;SDS011;14844;51.302;6.354;2022-12-26T13:34:38;10.10;;;2.15;;
27375;SDS011;14844;51.302;6.354;2022-12-26T13:37:03;11.48;;;1.80;;
27375;SDS011;14844;51.302;6.354;2022-12-26T13:39:31;10.10;;;1.70;;
27375;SDS011;14844;51.302;6.354;2022-12-26T13:42:00;8.48;;;1.45;;
27375;SDS011;14844;51.302;6.354;2022-12-26T13:48:01;7.40;;;1.30;;
27375;SDS011;14844;51.302;6.354;2022-12-26T13:50:46;8.35;;;1.55;;
27375;SDS011;14844;51.302;6.354;2022-12-26T13:55:51;7.40;;;1.70;;
27375;SDS011;14844;51.302;6.354;2022-12-26T13:58:25;11.90;;;2.17;;
27375;SDS011;14844;51.302;6.354;2022-12-26T14:00:59;14.20;;;1.70;;
27375;SDS011;14844;51.302;6.354;2022-12-26T14:03:45;10.65;;;2.00;;
27375;SDS011;14844;51.302;6.354;2022-12-26T14:20:02;14.25;;;2.30;;
27375;SDS011;14844;51.302;6.354;2022-12-26T14:27:55;11.73;;;1.98;;
27375;SDS011;14844;51.302;6.354;2022-12-26T14:30:36;9.30;;;2.25;;
27375;SDS011;14844;51.302;6.354;2022-12-26T14:36:03;11.27;;;2.03;;
27375;SDS011;14844;51.302;6.354;2022-12-26T14:38:57;14.02;;;2.10;;
27375;SDS011;14844;51.302;6.354;2022-12-26T14:44:48;7.72;;;1.60;;
27375;SDS011;14844;51.302;6.354;2022-12-26T14:47:16;10.63;;;1.25;;
27375;SDS011;14844;51.302;6.354;2022-12-26T14:55:51;9.05;;;1.30;;
27375;SDS011;14844;51.302;6.354;2022-12-26T14:58:27;6.70;;;1.20;;
27375;SDS011;14844;51.302;6.354;2022-12-26T15:09:22;10.40;;;1.65;;
27375;SDS011;14844;51.302;6.354;2022-12-26T15:29:54;12.50;;;1.92;;
27375;SDS011;14844;51.302;6.354;2022-12-26T15:33:07;8.25;;;1.52;;
27375;SDS011;14844;51.302;6.354;2022-12-26T15:36:05;6.78;;;1.42;;
27375;SDS011;14844;51.302;6.354;2022-12-26T15:40:50;8.48;;;1.60;;
27375;SDS011;14844;51.302;6.354;2022-12-26T15:43:47;13.07;;;2.22;;
27375;SDS011;14844;51.302;6.354;2022-12-26T15:46:34;11.32;;;1.85;;
27375;SDS011;14844;51.302;6.354;2022-12-26T15:49:12;10.02;;;1.70;;
27375;SDS011;14844;51.302;6.354;2022-12-26T16:00:15;15.40;;;2.13;;
27375;SDS011;14844;51.302;6.354;2022-12-26T16:02:46;12.18;;;2.05;;
27375;SDS011;14844;51.302;6.354;2022-12-26T16:05:34;12.00;;;1.85;;
27375;SDS011;14844;51.302;6.354;2022-12-26T16:10:48;7.65;;;1.25;;
27375;SDS011;14844;51.302;6.354;2022-12-26T16:13:55;9.02;;;1.60;;
27375;SDS011;14844;51.302;6.354;2022-12-26T16:16:27;7.32;;;1.35;;
27375;SDS011;14844;51.302;6.354;2022-12-26T16:18:57;4.55;;;1.55;;
27375;SDS011;14844;51.302;6.354;2022-12-26T16:21:38;9.18;;;1.25;;
27375;SDS011;14844;51.302;6.354;2022-12-26T16:24:22;8.35;;;1.45;;
27375;SDS011;14844;51.302;6.354;2022-12-26T16:26:47;8.73;;;1.63;;
27375;SDS011;14844;51.302;6.354;2022-12-26T16:29:17;13.48;;;1.40;;
27375;SDS011;14844;51.302;6.354;2022-12-26T16:31:45;9.13;;;1.20;;
27375;SDS011;14844;51.302;6.354;2022-12-26T16:34:18;5.95;;;1.20;;
27375;SDS011;14844;51.302;6.354;2022-12-26T16:36:44;8.48;;;1.73;;
27375;SDS011;14844;51.302;6.354;2022-12-26T16:39:17;4.25;;;1.27;;
27375;SDS011;14844;51.302;6.354;2022-12-26T16:42:02;5.75;;;1.50;;
27375;SDS011;14844;51.302;6.354;2022-12-26T16:44:35;8.60;;;1.52;;
27375;SDS011;14844;51.302;6.354;2022-12-26T16:47:12;11.70;;;1.73;;
27375;SDS011;14844;51.302;6.354;2022-12-26T16:49:39;6.35;;;1.40;;
27375;SDS011;14844;51.302;6.354;2022-12-26T16:52:09;7.78;;;1.65;;
27375;SDS011;14844;51.302;6.354;2022-12-26T16:54:54;6.75;;;1.77;;
27375;SDS011;14844;51.302;6.354;2022-12-26T16:57:20;4.20;;;1.10;;
27375;SDS011;14844;51.302;6.354;2022-12-26T17:02:18;5.22;;;1.27;;
27375;SDS011;14844;51.302;6.354;2022-12-26T17:04:48;7.97;;;1.52;;
27375;SDS011;14844;51.302;6.354;2022-12-26T17:07:19;9.75;;;1.55;;
27375;SDS011;14844;51.302;6.354;2022-12-26T17:09:46;8.93;;;1.38;;
27375;SDS011;14844;51.302;6.354;2022-12-26T17:12:18;8.80;;;1.97;;
27375;SDS011;14844;51.302;6.354;2022-12-26T17:14:48;9.32;;;2.33;;
27375;SDS011;14844;51.302;6.354;2022-12-26T17:22:33;12.50;;;1.90;;
27375;SDS011;14844;51.302;6.354;2022-12-26T17:27:41;15.40;;;1.85;;
27375;SDS011;14844;51.302;6.354;2022-12-26T17:33:11;13.77;;;2.60;;
27375;SDS011;14844;51.302;6.354;2022-12-26T17:35:42;8.23;;;1.58;;
27375;SDS011;14844;51.302;6.354;2022-12-26T17:38:13;14.55;;;2.55;;
27375;SDS011;14844;51.302;6.354;2022-12-26T17:40:49;12.77;;;2.30;;
27375;SDS011;14844;51.302;6.354;2022-12-26T17:43:28;11.45;;;2.50;;
27375;SDS011;14844;51.302;6.354;2022-12-26T17:45:56;9.43;;;2.40;;
27375;SDS011;14844;51.302;6.354;2022-12-26T17:48:22;17.30;;;2.42;;
27375;SDS011;14844;51.302;6.354;2022-12-26T17:50:48;14.30;;;3.42;;
27375;SDS011;14844;51.302;6.354;2022-12-26T17:55:46;10.02;;;2.40;;
27375;SDS011;14844;51.302;6.354;2022-12-26T17:58:12;9.57;;;1.80;;
27375;SDS011;14844;51.302;6.354;2022-12-26T18:00:39;9.20;;;2.38;;
27375;SDS011;14844;51.302;6.354;2022-12-26T18:03:06;9.13;;;1.88;;
27375;SDS011;14844;51.302;6.354;2022-12-26T18:05:32;17.23;;;2.72;;
27375;SDS011;14844;51.302;6.354;2022-12-26T18:07:59;11.25;;;2.38;;
27375;SDS011;14844;51.302;6.354;2022-12-26T18:10:26;17.27;;;2.63;;
27375;SDS011;14844;51.302;6.354;2022-12-26T18:12:54;11.15;;;2.60;;
27375;SDS011;14844;51.302;6.354;2022-12-26T18:15:21;17.08;;;4.32;;
27375;SDS011;14844;51.302;6.354;2022-12-26T18:17:48;7.20;;;2.70;;
27375;SDS011;14844;51.302;6.354;2022-12-26T18:20:15;16.08;;;3.58;;
27375;SDS011;14844;51.302;6.354;2022-12-26T18:22:46;14.32;;;4.20;;
27375;SDS011;14844;51.302;6.354;2022-12-26T18:25:13;13.57;;;3.05;;
27375;SDS011;14844;51.302;6.354;2022-12-26T18:27:39;13.48;;;3.65;;
27375;SDS011;14844;51.302;6.354;2022-12-26T18:30:05;15.45;;;5.25;;
27375;SDS011;14844;51.302;6.354;2022-12-26T18:32:35;18.92;;;2.92;;
27375;SDS011;14844;51.302;6.354;2022-12-26T18:35:01;16.40;;;2.50;;
27375;SDS011;14844;51.302;6.354;2022-12-26T18:37:27;21.38;;;3.75;;
27375;SDS011;14844;51.302;6.354;2022-12-26T18:39:53;14.90;;;3.00;;
27375;SDS011;14844;51.302;6.354;2022-12-26T18:42:19;12.52;;;2.30;;
27375;SDS011;14844;51.302;6.354;2022-12-26T18:44:44;14.40;;;2.63;;